sensor_id;sensor_type;location;lat;lon;timestamp;temperature;humidity
16511;DHT22;8368;48.772;8.754;2022-11-20T00:01:08;4.80;99.90
16511;DHT22;8368;48.772;8.754;2022-11-20T00:03:34;4.80;99.90
16511;DHT22;8368;48.772;8.754;2022-11-20T00:06:01;4.90;99.90
16511;DHT22;8368;48.772;8.754;2022-11-20T00:08:27;4.90;99.90
16511;DHT22;8368;48.772;8.754;2022-11-20T00:10:52;4.90;99.90
16511;DHT22;8368;48.772;8.754;2022-11-20T00:13:18;4.90;99.90
16511;DHT22;8368;48.772;8.754;2022-11-20T00:15:44;4.80;99.90
16511;DHT22;8368;48.772;8.754;2022-11-20T00:18:09;4.70;99.90
16511;DHT22;8368;48.772;8.754;2022-11-20T00:20:35;4.80;99.90
16511;DHT22;8368;48.772;8.754;2022-11-20T00:23:00;4.70;99.90
16511;DHT22;8368;48.772;8.754;2022-11-20T00:25:26;4.60;99.90
16511;DHT22;8368;48.772;8.754;2022-11-20T00:27:51;4.60;99.90
16511;DHT22;8368;48.772;8.754;2022-11-20T00:30:17;4.60;99.90
16511;DHT22;8368;48.772;8.754;2022-11-20T00:32:43;4.60;99.90
16511;DHT22;8368;48.772;8.754;2022-11-20T00:35:08;4.50;99.90
16511;DHT22;8368;48.772;8.754;2022-11-20T00:37:34;4.50;99.90
16511;DHT22;8368;48.772;8.754;2022-11-20T00:39:59;4.40;99.90
16511;DHT22;8368;48.772;8.754;2022-11-20T00:42:25;4.40;99.90
16511;DHT22;8368;48.772;8.754;2022-11-20T00:44:50;4.30;99.90
16511;DHT22;8368;48.772;8.754;2022-11-20T00:47:16;4.30;99.90
16511;DHT22;8368;48.772;8.754;2022-11-20T00:49:41;4.20;99.90
16511;DHT22;8368;48.772;8.754;2022-11-20T00:52:07;4.20;99.90
16511;DHT22;8368;48.772;8.754;2022-11-20T00:54:33;4.20;99.90
16511;DHT22;8368;48.772;8.754;2022-11-20T00:56:58;4.20;99.90
16511;DHT22;8368;48.772;8.754;2022-11-20T00:59:24;4.20;99.90
16511;DHT22;8368;48.772;8.754;2022-11-20T01:01:49;4.10;99.90
16511;DHT22;8368;48.772;8.754;2022-11-20T01:04:15;4.10;99.90
16511;DHT22;8368;48.772;8.754;2022-11-20T01:06:40;4.00;99.90
16511;DHT22;8368;48.772;8.754;2022-11-20T01:09:11;4.00;99.90
16511;DHT22;8368;48.772;8.754;2022-11-20T01:11:39;3.90;99.90
16511;DHT22;8368;48.772;8.754;2022-11-20T01:14:07;3.90;99.90
16511;DHT22;8368;48.772;8.754;2022-11-20T01:16:40;3.90;99.90
16511;DHT22;8368;48.772;8.754;2022-11-20T01:19:07;3.90;99.90
16511;DHT22;8368;48.772;8.754;2022-11-20T01:21:37;3.90;99.90
16511;DHT22;8368;48.772;8.754;2022-11-20T01:24:04;3.90;99.90
16511;DHT22;8368;48.772;8.754;2022-11-20T01:26:34;3.80;99.90
16511;DHT22;8368;48.772;8.754;2022-11-20T01:29:02;3.80;99.90
16511;DHT22;8368;48.772;8.754;2022-11-20T01:31:35;3.80;99.90
16511;DHT22;8368;48.772;8.754;2022-11-20T01:34:06;3.90;99.90
16511;DHT22;8368;48.772;8.754;2022-11-20T01:36:33;3.90;99.90
16511;DHT22;8368;48.772;8.754;2022-11-20T01:39:04;3.90;99.90
16511;DHT22;8368;48.772;8.754;2022-11-20T01:41:31;3.90;99.90
16511;DHT22;8368;48.772;8.754;2022-11-20T01:44:19;3.90;99.90
16511;DHT22;8368;48.772;8.754;2022-11-20T01:47:05;3.90;99.90
16511;DHT22;8368;48.772;8.754;2022-11-20T01:49:40;3.90;99.90
16511;DHT22;8368;48.772;8.754;2022-11-20T01:52:16;3.90;99.90
16511;DHT22;8368;48.772;8.754;2022-11-20T01:54:54;4.00;99.90
16511;DHT22;8368;48.772;8.754;2022-11-20T01:57:22;3.90;99.90
16511;DHT22;8368;48.772;8.754;2022-11-20T01:59:55;3.90;99.90
16511;DHT22;8368;48.772;8.754;2022-11-20T02:02:22;3.90;99.90
16511;DHT22;8368;48.772;8.754;2022-11-20T02:04:51;3.80;99.90
16511;DHT22;8368;48.772;8.754;2022-11-20T02:07:20;3.90;99.90
16511;DHT22;8368;48.772;8.754;2022-11-20T02:09:46;3.90;99.90
16511;DHT22;8368;48.772;8.754;2022-11-20T02:12:12;4.00;99.90
16511;DHT22;8368;48.772;8.754;2022-11-20T02:14:57;4.00;99.90
16511;DHT22;8368;48.772;8.754;2022-11-20T02:17:24;3.90;99.90
16511;DHT22;8368;48.772;8.754;2022-11-20T02:19:49;3.90;99.90
16511;DHT22;8368;48.772;8.754;2022-11-20T02:22:22;3.90;99.90
16511;DHT22;8368;48.772;8.754;2022-11-20T02:24:51;4.00;99.90
16511;DHT22;8368;48.772;8.754;2022-11-20T02:27:17;4.00;99.90
16511;DHT22;8368;48.772;8.754;2022-11-20T02:30:02;4.10;99.90
16511;DHT22;8368;48.772;8.754;2022-11-20T02:32:33;4.10;99.90
16511;DHT22;8368;48.772;8.754;2022-11-20T02:35:52;4.10;99.90
16511;DHT22;8368;48.772;8.754;2022-11-20T02:37:54;4.10;99.90
16511;DHT22;8368;48.772;8.754;2022-11-20T02:40:21;4.10;99.90
16511;DHT22;8368;48.772;8.754;2022-11-20T02:42:47;4.10;99.90
16511;DHT22;8368;48.772;8.754;2022-11-20T02:45:12;4.10;99.90
16511;DHT22;8368;48.772;8.754;2022-11-20T02:47:38;4.10;99.90
16511;DHT22;8368;48.772;8.754;2022-11-20T02:50:04;4.00;99.90
16511;DHT22;8368;48.772;8.754;2022-11-20T02:52:30;4.00;99.90
16511;DHT22;8368;48.772;8.754;2022-11-20T02:54:56;4.00;99.90
16511;DHT22;8368;48.772;8.754;2022-11-20T02:57:22;4.00;99.90
16511;DHT22;8368;48.772;8.754;2022-11-20T02:59:47;4.00;99.90
16511;DHT22;8368;48.772;8.754;2022-11-20T03:02:13;4.00;99.90
16511;DHT22;8368;48.772;8.754;2022-11-20T03:04:38;4.10;99.90
16511;DHT22;8368;48.772;8.754;2022-11-20T03:07:04;4.20;99.90
16511;DHT22;8368;48.772;8.754;2022-11-20T03:09:30;4.20;99.90
16511;DHT22;8368;48.772;8.754;2022-11-20T03:11:55;4.30;99.90
16511;DHT22;8368;48.772;8.754;2022-11-20T03:14:21;4.20;99.90
16511;DHT22;8368;48.772;8.754;2022-11-20T03:16:47;4.10;99.90
16511;DHT22;8368;48.772;8.754;2022-11-20T03:19:13;4.10;99.90
16511;DHT22;8368;48.772;8.754;2022-11-20T03:21:39;4.00;99.90
16511;DHT22;8368;48.772;8.754;2022-11-20T03:24:05;4.00;99.90
16511;DHT22;8368;48.772;8.754;2022-11-20T03:26:30;3.90;99.90
16511;DHT22;8368;48.772;8.754;2022-11-20T03:29:01;3.90;99.90
16511;DHT22;8368;48.772;8.754;2022-11-20T03:31:33;3.90;99.90
16511;DHT22;8368;48.772;8.754;2022-11-20T03:34:00;4.00;99.90
16511;DHT22;8368;48.772;8.754;2022-11-20T03:36:26;4.10;99.90
16511;DHT22;8368;48.772;8.754;2022-11-20T03:38:53;4.10;99.90
16511;DHT22;8368;48.772;8.754;2022-11-20T03:41:25;4.30;99.90
16511;DHT22;8368;48.772;8.754;2022-11-20T03:43:53;4.40;99.90
16511;DHT22;8368;48.772;8.754;2022-11-20T03:46:19;4.50;99.90
16511;DHT22;8368;48.772;8.754;2022-11-20T03:48:45;4.60;99.90
16511;DHT22;8368;48.772;8.754;2022-11-20T03:51:15;4.60;99.90
16511;DHT22;8368;48.772;8.754;2022-11-20T03:53:42;4.70;99.90
16511;DHT22;8368;48.772;8.754;2022-11-20T03:56:09;4.80;99.90
16511;DHT22;8368;48.772;8.754;2022-11-20T03:58:37;4.80;99.90
16511;DHT22;8368;48.772;8.754;2022-11-20T04:01:12;4.80;99.90
16511;DHT22;8368;48.772;8.754;2022-11-20T04:03:39;4.80;99.90
16511;DHT22;8368;48.772;8.754;2022-11-20T04:06:06;4.80;99.90
16511;DHT22;8368;48.772;8.754;2022-11-20T04:08:32;4.70;99.90
16511;DHT22;8368;48.772;8.754;2022-11-20T04:11:18;4.80;99.90
16511;DHT22;8368;48.772;8.754;2022-11-20T04:13:47;4.80;99.90
16511;DHT22;8368;48.772;8.754;2022-11-20T04:16:13;4.90;99.90
16511;DHT22;8368;48.772;8.754;2022-11-20T04:18:38;4.90;99.90
16511;DHT22;8368;48.772;8.754;2022-11-20T04:21:05;4.90;99.90
16511;DHT22;8368;48.772;8.754;2022-11-20T04:23:31;4.90;99.90
16511;DHT22;8368;48.772;8.754;2022-11-20T04:26:09;4.90;99.90
16511;DHT22;8368;48.772;8.754;2022-11-20T04:28:35;4.90;99.90
16511;DHT22;8368;48.772;8.754;2022-11-20T04:31:02;5.00;99.90
16511;DHT22;8368;48.772;8.754;2022-11-20T04:33:28;5.00;99.90
16511;DHT22;8368;48.772;8.754;2022-11-20T04:35:53;5.00;99.90
16511;DHT22;8368;48.772;8.754;2022-11-20T04:38:19;5.00;99.90
16511;DHT22;8368;48.772;8.754;2022-11-20T04:40:44;5.00;99.90
16511;DHT22;8368;48.772;8.754;2022-11-20T04:43:10;5.10;99.90
16511;DHT22;8368;48.772;8.754;2022-11-20T04:45:35;5.10;99.90
16511;DHT22;8368;48.772;8.754;2022-11-20T04:48:01;5.20;99.90
16511;DHT22;8368;48.772;8.754;2022-11-20T04:50:26;5.20;99.90
16511;DHT22;8368;48.772;8.754;2022-11-20T04:52:52;5.30;99.90
16511;DHT22;8368;48.772;8.754;2022-11-20T04:55:17;5.30;99.90
16511;DHT22;8368;48.772;8.754;2022-11-20T04:57:43;5.30;99.90
16511;DHT22;8368;48.772;8.754;2022-11-20T05:00:09;5.30;99.90
16511;DHT22;8368;48.772;8.754;2022-11-20T05:02:35;5.30;99.90
16511;DHT22;8368;48.772;8.754;2022-11-20T05:05:00;5.30;99.90
16511;DHT22;8368;48.772;8.754;2022-11-20T05:07:26;5.30;99.90
16511;DHT22;8368;48.772;8.754;2022-11-20T05:09:51;5.30;99.90
16511;DHT22;8368;48.772;8.754;2022-11-20T05:12:17;5.30;99.90
16511;DHT22;8368;48.772;8.754;2022-11-20T05:14:42;5.30;99.90
16511;DHT22;8368;48.772;8.754;2022-11-20T05:17:10;5.30;99.90
16511;DHT22;8368;48.772;8.754;2022-11-20T05:19:36;5.30;99.90
16511;DHT22;8368;48.772;8.754;2022-11-20T05:22:01;5.30;99.90
16511;DHT22;8368;48.772;8.754;2022-11-20T05:24:27;5.30;99.90
16511;DHT22;8368;48.772;8.754;2022-11-20T05:26:52;5.30;99.90
16511;DHT22;8368;48.772;8.754;2022-11-20T05:29:18;5.30;99.90
16511;DHT22;8368;48.772;8.754;2022-11-20T05:31:43;5.30;99.90
16511;DHT22;8368;48.772;8.754;2022-11-20T05:34:09;5.30;99.90
16511;DHT22;8368;48.772;8.754;2022-11-20T05:36:34;5.30;99.90
16511;DHT22;8368;48.772;8.754;2022-11-20T05:39:00;5.30;99.90
16511;DHT22;8368;48.772;8.754;2022-11-20T05:41:25;5.30;99.90
16511;DHT22;8368;48.772;8.754;2022-11-20T05:43:51;5.30;99.90
16511;DHT22;8368;48.772;8.754;2022-11-20T05:46:19;5.30;99.90
16511;DHT22;8368;48.772;8.754;2022-11-20T05:48:46;5.30;99.90
16511;DHT22;8368;48.772;8.754;2022-11-20T05:51:15;5.30;99.90
16511;DHT22;8368;48.772;8.754;2022-11-20T05:53:41;5.30;99.90
16511;DHT22;8368;48.772;8.754;2022-11-20T05:56:21;5.30;99.90
16511;DHT22;8368;48.772;8.754;2022-11-20T05:58:47;5.30;99.90
16511;DHT22;8368;48.772;8.754;2022-11-20T06:01:17;5.30;99.90
16511;DHT22;8368;48.772;8.754;2022-11-20T06:03:43;5.40;99.90
16511;DHT22;8368;48.772;8.754;2022-11-20T06:06:11;5.40;99.90
16511;DHT22;8368;48.772;8.754;2022-11-20T06:08:37;5.40;99.90
16511;DHT22;8368;48.772;8.754;2022-11-20T06:11:04;5.40;99.90
16511;DHT22;8368;48.772;8.754;2022-11-20T06:13:30;5.30;99.90
16511;DHT22;8368;48.772;8.754;2022-11-20T06:15:55;5.30;99.90
16511;DHT22;8368;48.772;8.754;2022-11-20T06:18:21;5.30;99.90
16511;DHT22;8368;48.772;8.754;2022-11-20T06:20:47;5.30;99.90
16511;DHT22;8368;48.772;8.754;2022-11-20T06:23:13;5.30;99.90
16511;DHT22;8368;48.772;8.754;2022-11-20T06:25:39;5.40;99.90
16511;DHT22;8368;48.772;8.754;2022-11-20T06:28:05;5.30;99.90
16511;DHT22;8368;48.772;8.754;2022-11-20T06:30:30;5.30;99.90
16511;DHT22;8368;48.772;8.754;2022-11-20T06:32:56;5.30;99.90
16511;DHT22;8368;48.772;8.754;2022-11-20T06:35:21;5.30;99.90
16511;DHT22;8368;48.772;8.754;2022-11-20T06:37:47;5.30;99.90
16511;DHT22;8368;48.772;8.754;2022-11-20T06:40:13;5.30;99.90
16511;DHT22;8368;48.772;8.754;2022-11-20T06:42:38;5.30;99.90
16511;DHT22;8368;48.772;8.754;2022-11-20T06:45:04;5.30;99.90
16511;DHT22;8368;48.772;8.754;2022-11-20T06:47:30;5.30;99.90
16511;DHT22;8368;48.772;8.754;2022-11-20T06:49:55;5.30;99.90
16511;DHT22;8368;48.772;8.754;2022-11-20T06:52:21;5.30;99.90
16511;DHT22;8368;48.772;8.754;2022-11-20T06:54:46;5.30;99.90
16511;DHT22;8368;48.772;8.754;2022-11-20T06:57:12;5.30;99.90
16511;DHT22;8368;48.772;8.754;2022-11-20T06:59:38;5.30;99.90
16511;DHT22;8368;48.772;8.754;2022-11-20T07:02:03;5.30;99.90
16511;DHT22;8368;48.772;8.754;2022-11-20T07:04:29;5.30;99.90
16511;DHT22;8368;48.772;8.754;2022-11-20T07:06:54;5.30;99.90
16511;DHT22;8368;48.772;8.754;2022-11-20T07:09:19;5.20;99.90
16511;DHT22;8368;48.772;8.754;2022-11-20T07:11:45;5.20;99.90
16511;DHT22;8368;48.772;8.754;2022-11-20T07:14:10;5.30;99.90
16511;DHT22;8368;48.772;8.754;2022-11-20T07:16:36;5.20;99.90
16511;DHT22;8368;48.772;8.754;2022-11-20T07:19:02;5.20;99.90
16511;DHT22;8368;48.772;8.754;2022-11-20T07:21:27;5.20;99.90
16511;DHT22;8368;48.772;8.754;2022-11-20T07:23:53;5.20;99.90
16511;DHT22;8368;48.772;8.754;2022-11-20T07:26:18;5.20;99.90
16511;DHT22;8368;48.772;8.754;2022-11-20T07:28:45;5.10;99.90
16511;DHT22;8368;48.772;8.754;2022-11-20T07:31:10;5.10;99.90
16511;DHT22;8368;48.772;8.754;2022-11-20T07:33:37;5.10;99.90
16511;DHT22;8368;48.772;8.754;2022-11-20T07:36:03;5.00;99.90
16511;DHT22;8368;48.772;8.754;2022-11-20T07:38:29;5.00;99.90
16511;DHT22;8368;48.772;8.754;2022-11-20T07:40:58;5.00;99.90
16511;DHT22;8368;48.772;8.754;2022-11-20T07:43:27;5.00;99.90
16511;DHT22;8368;48.772;8.754;2022-11-20T07:45:58;5.10;99.90
16511;DHT22;8368;48.772;8.754;2022-11-20T07:48:24;5.10;99.90
16511;DHT22;8368;48.772;8.754;2022-11-20T07:50:53;5.10;99.90
16511;DHT22;8368;48.772;8.754;2022-11-20T07:53:19;5.10;99.90
16511;DHT22;8368;48.772;8.754;2022-11-20T07:55:46;5.10;99.90
16511;DHT22;8368;48.772;8.754;2022-11-20T07:58:11;5.10;99.90
16511;DHT22;8368;48.772;8.754;2022-11-20T08:00:37;5.10;99.90
16511;DHT22;8368;48.772;8.754;2022-11-20T08:03:06;5.10;99.90
16511;DHT22;8368;48.772;8.754;2022-11-20T08:05:32;5.10;99.90
16511;DHT22;8368;48.772;8.754;2022-11-20T08:07:57;5.10;99.90
16511;DHT22;8368;48.772;8.754;2022-11-20T08:10:23;5.20;99.90
16511;DHT22;8368;48.772;8.754;2022-11-20T08:12:50;5.20;99.90
16511;DHT22;8368;48.772;8.754;2022-11-20T08:15:35;5.20;99.90
16511;DHT22;8368;48.772;8.754;2022-11-20T08:18:09;5.20;99.90
16511;DHT22;8368;48.772;8.754;2022-11-20T08:20:36;5.20;99.90
16511;DHT22;8368;48.772;8.754;2022-11-20T08:23:03;5.20;99.90
16511;DHT22;8368;48.772;8.754;2022-11-20T08:25:31;5.20;99.90
16511;DHT22;8368;48.772;8.754;2022-11-20T08:28:02;5.30;99.90
16511;DHT22;8368;48.772;8.754;2022-11-20T08:30:28;5.30;99.90
16511;DHT22;8368;48.772;8.754;2022-11-20T08:32:55;5.30;99.90
16511;DHT22;8368;48.772;8.754;2022-11-20T08:35:26;5.30;99.90
16511;DHT22;8368;48.772;8.754;2022-11-20T08:37:51;5.30;99.90
16511;DHT22;8368;48.772;8.754;2022-11-20T08:40:17;5.40;99.90
16511;DHT22;8368;48.772;8.754;2022-11-20T08:42:47;5.40;99.90
16511;DHT22;8368;48.772;8.754;2022-11-20T08:45:13;5.30;99.90
16511;DHT22;8368;48.772;8.754;2022-11-20T08:47:38;5.30;99.90
16511;DHT22;8368;48.772;8.754;2022-11-20T08:50:04;5.30;99.90
16511;DHT22;8368;48.772;8.754;2022-11-20T08:52:30;5.30;99.90
16511;DHT22;8368;48.772;8.754;2022-11-20T08:54:55;5.30;99.90
16511;DHT22;8368;48.772;8.754;2022-11-20T08:57:21;5.40;99.90
16511;DHT22;8368;48.772;8.754;2022-11-20T08:59:46;5.40;99.90
16511;DHT22;8368;48.772;8.754;2022-11-20T09:02:12;5.40;99.90
16511;DHT22;8368;48.772;8.754;2022-11-20T09:04:37;5.40;99.90
16511;DHT22;8368;48.772;8.754;2022-11-20T09:07:03;5.30;99.90
16511;DHT22;8368;48.772;8.754;2022-11-20T09:09:28;5.40;99.90
16511;DHT22;8368;48.772;8.754;2022-11-20T09:11:54;5.40;99.90
16511;DHT22;8368;48.772;8.754;2022-11-20T09:14:19;5.40;99.90
16511;DHT22;8368;48.772;8.754;2022-11-20T09:16:46;5.40;99.90
16511;DHT22;8368;48.772;8.754;2022-11-20T09:19:12;5.50;99.90
16511;DHT22;8368;48.772;8.754;2022-11-20T09:21:37;5.40;99.90
16511;DHT22;8368;48.772;8.754;2022-11-20T09:24:04;5.40;99.90
16511;DHT22;8368;48.772;8.754;2022-11-20T09:26:30;5.50;99.90
16511;DHT22;8368;48.772;8.754;2022-11-20T09:28:55;5.50;99.90
16511;DHT22;8368;48.772;8.754;2022-11-20T09:31:25;5.60;99.90
16511;DHT22;8368;48.772;8.754;2022-11-20T09:33:51;5.60;99.90
16511;DHT22;8368;48.772;8.754;2022-11-20T09:36:17;5.60;99.90
16511;DHT22;8368;48.772;8.754;2022-11-20T09:38:44;5.60;99.90
16511;DHT22;8368;48.772;8.754;2022-11-20T09:47:33;5.60;99.90
16511;DHT22;8368;48.772;8.754;2022-11-20T09:56:01;5.70;99.90
16511;DHT22;8368;48.772;8.754;2022-11-20T09:58:34;5.70;99.90
16511;DHT22;8368;48.772;8.754;2022-11-20T10:01:23;5.60;99.90
16511;DHT22;8368;48.772;8.754;2022-11-20T10:06:51;5.50;99.90
16511;DHT22;8368;48.772;8.754;2022-11-20T10:09:26;5.50;99.90
16511;DHT22;8368;48.772;8.754;2022-11-20T10:23:32;5.50;99.90
16511;DHT22;8368;48.772;8.754;2022-11-20T10:26:20;5.50;99.90
16511;DHT22;8368;48.772;8.754;2022-11-20T10:28:56;5.50;99.90
16511;DHT22;8368;48.772;8.754;2022-11-20T10:31:44;5.50;99.90
16511;DHT22;8368;48.772;8.754;2022-11-20T10:37:14;5.40;99.90
16511;DHT22;8368;48.772;8.754;2022-11-20T10:42:17;5.50;99.90
16511;DHT22;8368;48.772;8.754;2022-11-20T10:44:52;5.60;99.90
16511;DHT22;8368;48.772;8.754;2022-11-20T10:47:30;5.70;99.90
16511;DHT22;8368;48.772;8.754;2022-11-20T10:50:03;5.90;99.90
16511;DHT22;8368;48.772;8.754;2022-11-20T10:57:57;6.00;99.90
16511;DHT22;8368;48.772;8.754;2022-11-20T11:00:26;6.00;99.90
16511;DHT22;8368;48.772;8.754;2022-11-20T11:02:53;6.00;99.90
16511;DHT22;8368;48.772;8.754;2022-11-20T11:08:00;6.10;99.90
16511;DHT22;8368;48.772;8.754;2022-11-20T11:13:24;6.30;99.90
16511;DHT22;8368;48.772;8.754;2022-11-20T11:15:51;6.50;99.90
16511;DHT22;8368;48.772;8.754;2022-11-20T11:18:31;6.60;99.90
16511;DHT22;8368;48.772;8.754;2022-11-20T11:21:00;6.70;99.90
16511;DHT22;8368;48.772;8.754;2022-11-20T11:26:04;6.90;99.90
16511;DHT22;8368;48.772;8.754;2022-11-20T11:28:30;6.80;99.90
16511;DHT22;8368;48.772;8.754;2022-11-20T11:30:57;6.80;99.90
16511;DHT22;8368;48.772;8.754;2022-11-20T11:33:27;6.70;99.90
16511;DHT22;8368;48.772;8.754;2022-11-20T11:36:04;6.70;99.90
16511;DHT22;8368;48.772;8.754;2022-11-20T11:38:42;6.70;99.90
16511;DHT22;8368;48.772;8.754;2022-11-20T11:41:17;6.70;99.90
16511;DHT22;8368;48.772;8.754;2022-11-20T11:44:24;6.70;99.90
16511;DHT22;8368;48.772;8.754;2022-11-20T11:47:26;6.80;99.90
16511;DHT22;8368;48.772;8.754;2022-11-20T11:55:42;6.60;99.90
16511;DHT22;8368;48.772;8.754;2022-11-20T11:58:32;6.60;99.90
16511;DHT22;8368;48.772;8.754;2022-11-20T12:07:15;6.40;99.90
16511;DHT22;8368;48.772;8.754;2022-11-20T12:09:49;6.40;99.90
16511;DHT22;8368;48.772;8.754;2022-11-20T12:12:24;6.30;99.90
16511;DHT22;8368;48.772;8.754;2022-11-20T12:14:53;6.40;99.90
16511;DHT22;8368;48.772;8.754;2022-11-20T12:17:20;6.50;99.90
16511;DHT22;8368;48.772;8.754;2022-11-20T12:19:45;6.50;99.90
16511;DHT22;8368;48.772;8.754;2022-11-20T12:25:11;6.60;99.90
16511;DHT22;8368;48.772;8.754;2022-11-20T12:30:24;6.70;99.90
16511;DHT22;8368;48.772;8.754;2022-11-20T12:36:06;6.80;99.90
16511;DHT22;8368;48.772;8.754;2022-11-20T12:39:05;6.90;99.90
16511;DHT22;8368;48.772;8.754;2022-11-20T12:41:44;7.00;99.90
16511;DHT22;8368;48.772;8.754;2022-11-20T12:48:12;7.20;99.90
16511;DHT22;8368;48.772;8.754;2022-11-20T12:53:58;7.10;99.90
16511;DHT22;8368;48.772;8.754;2022-11-20T12:59:18;7.00;99.90
16511;DHT22;8368;48.772;8.754;2022-11-20T13:01:58;7.00;99.90
16511;DHT22;8368;48.772;8.754;2022-11-20T13:07:07;6.90;99.90
16511;DHT22;8368;48.772;8.754;2022-11-20T13:09:40;6.90;99.90
16511;DHT22;8368;48.772;8.754;2022-11-20T13:12:30;6.90;99.90
16511;DHT22;8368;48.772;8.754;2022-11-20T13:20:21;6.80;99.90
16511;DHT22;8368;48.772;8.754;2022-11-20T13:22:52;6.70;99.90
16511;DHT22;8368;48.772;8.754;2022-11-20T13:25:31;6.60;99.90
16511;DHT22;8368;48.772;8.754;2022-11-20T13:28:00;6.50;99.90
16511;DHT22;8368;48.772;8.754;2022-11-20T13:30:27;6.50;99.90
16511;DHT22;8368;48.772;8.754;2022-11-20T13:33:02;6.50;99.90
16511;DHT22;8368;48.772;8.754;2022-11-20T13:35:32;6.40;99.90
16511;DHT22;8368;48.772;8.754;2022-11-20T13:38:02;6.40;99.90
16511;DHT22;8368;48.772;8.754;2022-11-20T13:40:29;6.50;99.90
16511;DHT22;8368;48.772;8.754;2022-11-20T13:43:19;6.60;99.90
16511;DHT22;8368;48.772;8.754;2022-11-20T13:45:42;6.70;99.90
16511;DHT22;8368;48.772;8.754;2022-11-20T13:48:21;6.70;99.90
16511;DHT22;8368;48.772;8.754;2022-11-20T13:51:15;6.60;99.90
16511;DHT22;8368;48.772;8.754;2022-11-20T13:56:31;6.50;99.90
16511;DHT22;8368;48.772;8.754;2022-11-20T14:01:32;6.50;99.90
16511;DHT22;8368;48.772;8.754;2022-11-20T14:03:58;6.50;99.90
16511;DHT22;8368;48.772;8.754;2022-11-20T14:06:32;6.60;99.90
16511;DHT22;8368;48.772;8.754;2022-11-20T14:08:59;6.50;99.90
16511;DHT22;8368;48.772;8.754;2022-11-20T14:11:33;6.50;99.90
16511;DHT22;8368;48.772;8.754;2022-11-20T14:14:04;6.50;99.90
16511;DHT22;8368;48.772;8.754;2022-11-20T14:16:38;6.50;99.90
16511;DHT22;8368;48.772;8.754;2022-11-20T14:21:46;6.40;99.90
16511;DHT22;8368;48.772;8.754;2022-11-20T14:24:12;6.40;99.90
16511;DHT22;8368;48.772;8.754;2022-11-20T14:26:42;6.30;99.90
16511;DHT22;8368;48.772;8.754;2022-11-20T14:31:43;6.30;99.90
16511;DHT22;8368;48.772;8.754;2022-11-20T14:34:18;6.30;99.90
16511;DHT22;8368;48.772;8.754;2022-11-20T14:36:45;6.30;99.90
16511;DHT22;8368;48.772;8.754;2022-11-20T14:39:19;6.20;99.90
16511;DHT22;8368;48.772;8.754;2022-11-20T14:41:53;6.20;99.90
16511;DHT22;8368;48.772;8.754;2022-11-20T14:44:23;6.20;99.90
16511;DHT22;8368;48.772;8.754;2022-11-20T14:46:52;6.20;99.90
16511;DHT22;8368;48.772;8.754;2022-11-20T14:49:18;6.20;99.90
16511;DHT22;8368;48.772;8.754;2022-11-20T14:51:43;6.20;99.90
16511;DHT22;8368;48.772;8.754;2022-11-20T14:54:20;6.10;99.90
16511;DHT22;8368;48.772;8.754;2022-11-20T14:56:58;6.10;99.90
16511;DHT22;8368;48.772;8.754;2022-11-20T14:59:26;6.00;99.90
16511;DHT22;8368;48.772;8.754;2022-11-20T15:01:59;6.00;99.90
16511;DHT22;8368;48.772;8.754;2022-11-20T15:04:24;5.90;99.90
16511;DHT22;8368;48.772;8.754;2022-11-20T15:06:53;5.90;99.90
16511;DHT22;8368;48.772;8.754;2022-11-20T15:09:18;5.80;99.90
16511;DHT22;8368;48.772;8.754;2022-11-20T15:12:01;5.80;99.90
16511;DHT22;8368;48.772;8.754;2022-11-20T15:14:30;5.80;99.90
16511;DHT22;8368;48.772;8.754;2022-11-20T15:16:56;5.70;99.90
16511;DHT22;8368;48.772;8.754;2022-11-20T15:19:24;5.70;99.90
16511;DHT22;8368;48.772;8.754;2022-11-20T15:21:50;5.60;99.90
16511;DHT22;8368;48.772;8.754;2022-11-20T15:24:16;5.50;99.90
16511;DHT22;8368;48.772;8.754;2022-11-20T15:26:42;5.50;99.90
16511;DHT22;8368;48.772;8.754;2022-11-20T15:29:13;5.40;99.90
16511;DHT22;8368;48.772;8.754;2022-11-20T15:31:39;5.30;99.90
16511;DHT22;8368;48.772;8.754;2022-11-20T15:34:14;5.30;99.90
16511;DHT22;8368;48.772;8.754;2022-11-20T15:36:40;5.30;99.90
16511;DHT22;8368;48.772;8.754;2022-11-20T15:39:06;5.30;99.90
16511;DHT22;8368;48.772;8.754;2022-11-20T15:41:36;5.30;99.90
16511;DHT22;8368;48.772;8.754;2022-11-20T15:44:03;5.20;99.90
16511;DHT22;8368;48.772;8.754;2022-11-20T15:46:31;5.20;99.90
16511;DHT22;8368;48.772;8.754;2022-11-20T15:49:02;5.20;99.90
16511;DHT22;8368;48.772;8.754;2022-11-20T15:51:31;5.30;99.90
16511;DHT22;8368;48.772;8.754;2022-11-20T15:53:57;5.30;99.90
16511;DHT22;8368;48.772;8.754;2022-11-20T15:56:24;5.30;99.90
16511;DHT22;8368;48.772;8.754;2022-11-20T15:58:49;5.30;99.90
16511;DHT22;8368;48.772;8.754;2022-11-20T16:01:17;5.30;99.90
16511;DHT22;8368;48.772;8.754;2022-11-20T16:03:43;5.30;99.90
16511;DHT22;8368;48.772;8.754;2022-11-20T16:06:09;5.30;99.90
16511;DHT22;8368;48.772;8.754;2022-11-20T16:08:35;5.30;99.90
16511;DHT22;8368;48.772;8.754;2022-11-20T16:11:00;5.30;99.90
16511;DHT22;8368;48.772;8.754;2022-11-20T16:13:26;5.30;99.90
16511;DHT22;8368;48.772;8.754;2022-11-20T16:16:20;5.30;99.90
16511;DHT22;8368;48.772;8.754;2022-11-20T16:18:46;5.30;99.90
16511;DHT22;8368;48.772;8.754;2022-11-20T16:21:12;5.30;99.90
16511;DHT22;8368;48.772;8.754;2022-11-20T16:23:41;5.30;99.90
16511;DHT22;8368;48.772;8.754;2022-11-20T16:26:15;5.30;99.90
16511;DHT22;8368;48.772;8.754;2022-11-20T16:28:42;5.30;99.90
16511;DHT22;8368;48.772;8.754;2022-11-20T16:31:13;5.30;99.90
16511;DHT22;8368;48.772;8.754;2022-11-20T16:33:39;5.30;99.90
16511;DHT22;8368;48.772;8.754;2022-11-20T16:36:13;5.30;99.90
16511;DHT22;8368;48.772;8.754;2022-11-20T16:38:39;5.30;99.90
16511;DHT22;8368;48.772;8.754;2022-11-20T16:41:06;5.30;99.90
16511;DHT22;8368;48.772;8.754;2022-11-20T16:43:44;5.30;99.90
16511;DHT22;8368;48.772;8.754;2022-11-20T16:46:10;5.30;99.90
16511;DHT22;8368;48.772;8.754;2022-11-20T16:48:36;5.30;99.90
16511;DHT22;8368;48.772;8.754;2022-11-20T16:51:02;5.30;99.90
16511;DHT22;8368;48.772;8.754;2022-11-20T16:53:27;5.30;99.90
16511;DHT22;8368;48.772;8.754;2022-11-20T16:55:53;5.20;99.90
16511;DHT22;8368;48.772;8.754;2022-11-20T16:58:18;5.30;99.90
16511;DHT22;8368;48.772;8.754;2022-11-20T17:00:44;5.30;99.90
16511;DHT22;8368;48.772;8.754;2022-11-20T17:03:10;5.30;99.90
16511;DHT22;8368;48.772;8.754;2022-11-20T17:05:36;5.20;99.90
16511;DHT22;8368;48.772;8.754;2022-11-20T17:08:02;5.20;99.90
16511;DHT22;8368;48.772;8.754;2022-11-20T17:10:28;5.20;99.90
16511;DHT22;8368;48.772;8.754;2022-11-20T17:12:53;5.30;99.90
16511;DHT22;8368;48.772;8.754;2022-11-20T17:15:19;5.30;99.90
16511;DHT22;8368;48.772;8.754;2022-11-20T17:17:44;5.30;99.90
16511;DHT22;8368;48.772;8.754;2022-11-20T17:20:10;5.20;99.90
16511;DHT22;8368;48.772;8.754;2022-11-20T17:22:37;5.30;99.90
16511;DHT22;8368;48.772;8.754;2022-11-20T17:25:03;5.30;99.90
16511;DHT22;8368;48.772;8.754;2022-11-20T17:27:29;5.30;99.90
16511;DHT22;8368;48.772;8.754;2022-11-20T17:29:54;5.30;99.90
16511;DHT22;8368;48.772;8.754;2022-11-20T17:32:22;5.20;99.90
16511;DHT22;8368;48.772;8.754;2022-11-20T17:34:47;5.30;99.90
16511;DHT22;8368;48.772;8.754;2022-11-20T17:37:13;5.30;99.90
16511;DHT22;8368;48.772;8.754;2022-11-20T17:39:38;5.30;99.90
16511;DHT22;8368;48.772;8.754;2022-11-20T17:42:04;5.30;99.90
16511;DHT22;8368;48.772;8.754;2022-11-20T17:44:49;5.20;99.90
16511;DHT22;8368;48.772;8.754;2022-11-20T17:47:14;5.20;99.90